createdAt,value
2023-08-24T00:01:06.568Z,9.68
2023-08-24T00:03:34.109Z,7.70
2023-08-24T00:06:02.936Z,8.48
2023-08-24T00:08:30.296Z,7.50
2023-08-24T00:10:57.659Z,9.00
2023-08-24T00:13:25.013Z,7.95
2023-08-24T00:15:53.171Z,8.73
2023-08-24T00:18:22.737Z,10.65
2023-08-24T00:20:50.499Z,10.90
2023-08-24T00:23:19.376Z,10.55
2023-08-24T00:25:46.721Z,8.50
2023-08-24T00:28:14.092Z,8.20
2023-08-24T00:30:41.650Z,7.78
2023-08-24T00:33:09.050Z,7.10
2023-08-24T00:35:36.735Z,7.20
2023-08-24T00:38:04.224Z,7.45
2023-08-24T00:40:33.628Z,8.73
2023-08-24T00:43:01.955Z,7.03
2023-08-24T00:45:31.727Z,8.57
2023-08-24T00:47:59.208Z,8.48
2023-08-24T00:50:26.809Z,9.65
2023-08-24T00:52:54.355Z,8.93
2023-08-24T00:55:22.458Z,7.60
2023-08-24T00:57:52.555Z,8.98
2023-08-24T01:00:21.112Z,7.72
2023-08-24T01:02:48.533Z,9.55
2023-08-24T01:05:15.852Z,10.97
2023-08-24T01:07:43.763Z,8.60
2023-08-24T01:10:12.473Z,9.82
2023-08-24T01:12:59.983Z,8.38
2023-08-24T01:15:33.954Z,8.75
2023-08-24T01:18:06.191Z,9.07
2023-08-24T01:20:35.344Z,9.65
2023-08-24T01:23:10.204Z,7.28
2023-08-24T01:25:47.234Z,8.23
2023-08-24T01:28:17.050Z,12.45
2023-08-24T01:30:45.204Z,12.27
2023-08-24T01:33:13.291Z,10.23
2023-08-24T01:35:41.436Z,10.95
2023-08-24T01:38:13.786Z,9.27
2023-08-24T01:40:53.810Z,11.57
2023-08-24T01:43:42.376Z,11.80
2023-08-24T01:46:16.162Z,12.18
2023-08-24T01:48:45.598Z,13.27
2023-08-24T01:51:13.982Z,15.13
2023-08-24T01:53:42.153Z,14.02
2023-08-24T01:56:11.045Z,12.43
2023-08-24T01:58:39.918Z,11.85
2023-08-24T02:01:08.128Z,12.32
2023-08-24T02:03:35.655Z,11.43
2023-08-24T02:06:03.612Z,14.02
2023-08-24T02:08:31.872Z,11.90
2023-08-24T02:10:59.177Z,12.32
2023-08-24T02:13:26.546Z,11.05
2023-08-24T02:16:03.792Z,15.02
2023-08-24T02:18:31.118Z,11.90
2023-08-24T02:20:58.535Z,10.07
2023-08-24T02:23:25.908Z,13.43
2023-08-24T02:25:53.309Z,14.15
2023-08-24T02:28:20.593Z,14.60
2023-08-24T02:30:48.605Z,11.52
2023-08-24T02:33:20.089Z,12.40
2023-08-24T02:35:48.640Z,11.07
2023-08-24T02:38:16.028Z,12.00
2023-08-24T02:40:43.443Z,11.38
2023-08-24T02:43:10.790Z,12.85
2023-08-24T02:45:38.579Z,11.20
2023-08-24T02:48:06.581Z,11.73
2023-08-24T02:50:36.241Z,11.18
2023-08-24T02:53:04.251Z,11.52
2023-08-24T02:55:33.218Z,10.40
2023-08-24T02:58:00.517Z,10.97
2023-08-24T03:00:27.821Z,11.07
2023-08-24T03:02:55.414Z,9.88
2023-08-24T03:05:22.851Z,11.75
2023-08-24T03:07:52.105Z,12.57
2023-08-24T03:10:19.566Z,10.80
2023-08-24T03:12:46.933Z,9.98
2023-08-24T03:15:14.574Z,11.95
2023-08-24T03:17:42.588Z,9.77
2023-08-24T03:20:11.970Z,9.80
2023-08-24T03:22:39.407Z,10.10
2023-08-24T03:25:08.800Z,9.77
2023-08-24T03:27:36.144Z,10.02
2023-08-24T03:30:05.444Z,8.75
2023-08-24T03:32:32.817Z,12.27
2023-08-24T03:35:00.945Z,8.70
2023-08-24T03:37:28.212Z,9.95
2023-08-24T03:39:55.607Z,9.63
2023-08-24T03:42:24.335Z,9.13
2023-08-24T03:44:51.889Z,7.47
2023-08-24T03:47:19.240Z,8.60
2023-08-24T03:49:46.543Z,9.90
2023-08-24T03:52:15.267Z,8.43
2023-08-24T03:54:43.409Z,9.57
2023-08-24T03:57:10.734Z,7.97
2023-08-24T03:59:39.361Z,9.30
2023-08-24T04:02:07.311Z,8.68
2023-08-24T04:04:35.527Z,8.48
2023-08-24T04:07:04.034Z,11.80
2023-08-24T04:09:31.368Z,9.85
2023-08-24T04:11:58.695Z,8.33
2023-08-24T04:14:25.986Z,9.82
2023-08-24T04:16:54.665Z,10.25
2023-08-24T04:19:22.034Z,10.35
2023-08-24T04:21:49.429Z,8.40
2023-08-24T04:24:16.802Z,9.07
2023-08-24T04:26:44.160Z,10.88
2023-08-24T04:29:11.590Z,9.15
2023-08-24T04:31:41.682Z,11.18
2023-08-24T04:34:10.552Z,9.65
2023-08-24T04:36:38.109Z,10.20
2023-08-24T04:39:05.436Z,10.52
2023-08-24T04:41:32.840Z,8.70
2023-08-24T04:44:00.130Z,10.90
2023-08-24T04:46:27.738Z,9.63
2023-08-24T04:48:55.132Z,11.70
2023-08-24T04:51:23.783Z,9.00
2023-08-24T04:53:51.073Z,10.02
2023-08-24T04:56:20.191Z,13.05
2023-08-24T04:58:55.165Z,11.50
2023-08-24T05:01:22.552Z,18.87
2023-08-24T05:03:49.967Z,17.02
2023-08-24T05:06:17.343Z,17.35
2023-08-24T05:08:46.127Z,13.10
2023-08-24T05:11:14.769Z,12.77
2023-08-24T05:13:42.148Z,10.90
2023-08-24T05:16:10.611Z,11.75
2023-08-24T05:18:37.926Z,10.02
2023-08-24T05:21:05.444Z,8.15
2023-08-24T05:23:33.308Z,10.27
2023-08-24T05:26:03.371Z,11.63
2023-08-24T05:28:33.282Z,6.78
2023-08-24T05:31:00.846Z,9.95
2023-08-24T05:33:28.426Z,10.15
2023-08-24T05:35:55.743Z,9.13
2023-08-24T05:38:23.154Z,7.00
2023-08-24T05:40:50.852Z,9.05
2023-08-24T05:43:19.609Z,9.40
2023-08-24T05:45:48.024Z,9.27
2023-08-24T05:48:15.605Z,8.10
2023-08-24T05:50:47.417Z,8.43
2023-08-24T05:53:15.309Z,8.25
2023-08-24T05:55:42.777Z,7.32
2023-08-24T05:58:10.092Z,8.75
2023-08-24T06:00:38.724Z,5.40
2023-08-24T06:03:06.112Z,9.10
2023-08-24T06:05:33.520Z,7.15
2023-08-24T06:08:00.870Z,7.38
2023-08-24T06:10:28.596Z,6.38
2023-08-24T06:12:56.080Z,6.80
2023-08-24T06:15:29.091Z,9.10
2023-08-24T06:18:00.042Z,6.45
2023-08-24T06:20:27.410Z,6.57
2023-08-24T06:22:54.760Z,8.65
2023-08-24T06:25:22.096Z,6.75
2023-08-24T06:27:49.673Z,7.43
2023-08-24T06:30:17.260Z,9.68
2023-08-24T06:32:44.598Z,8.00
2023-08-24T06:35:15.620Z,7.65
2023-08-24T06:37:43.357Z,6.43
2023-08-24T06:40:11.860Z,8.40
2023-08-24T06:42:39.173Z,7.35
2023-08-24T06:45:08.028Z,7.45
2023-08-24T06:47:35.343Z,6.55
2023-08-24T06:50:02.743Z,6.50
2023-08-24T06:52:31.544Z,6.47
2023-08-24T06:54:58.943Z,7.82
2023-08-24T06:57:26.332Z,6.22
2023-08-24T06:59:53.667Z,5.97
2023-08-24T07:02:21.336Z,5.65
2023-08-24T07:04:48.756Z,7.03
2023-08-24T07:07:16.122Z,6.70
2023-08-24T07:09:44.807Z,5.82
2023-08-24T07:12:12.300Z,6.85
2023-08-24T07:14:39.728Z,7.43
2023-08-24T07:17:07.890Z,6.57
2023-08-24T07:19:35.212Z,6.05
2023-08-24T07:22:02.793Z,6.60
2023-08-24T07:24:44.738Z,5.70
2023-08-24T07:27:14.772Z,5.68
2023-08-24T07:29:42.498Z,6.07
2023-08-24T07:32:09.914Z,6.28
2023-08-24T07:34:37.443Z,6.88
2023-08-24T07:37:04.930Z,4.95
2023-08-24T07:39:33.277Z,7.65
2023-08-24T07:42:00.670Z,7.30
2023-08-24T07:44:29.460Z,6.70
2023-08-24T07:46:56.812Z,5.55
2023-08-24T07:49:24.161Z,7.25
2023-08-24T07:51:51.628Z,8.63
2023-08-24T07:54:19.002Z,7.27
2023-08-24T07:56:46.989Z,6.63
2023-08-24T07:59:14.327Z,7.05
2023-08-24T08:01:43.011Z,5.25
2023-08-24T08:04:10.742Z,6.38
2023-08-24T08:06:38.070Z,10.43
2023-08-24T08:09:05.386Z,8.02
2023-08-24T08:11:32.798Z,6.47
2023-08-24T08:14:02.266Z,8.27
2023-08-24T08:16:29.561Z,7.65
2023-08-24T08:18:58.339Z,6.80
2023-08-24T08:21:25.748Z,6.15
2023-08-24T08:23:53.391Z,6.03
2023-08-24T08:26:20.797Z,6.95
2023-08-24T08:28:48.288Z,6.97
2023-08-24T08:31:15.707Z,5.57
2023-08-24T08:33:43.171Z,6.97
2023-08-24T08:36:11.781Z,6.68
2023-08-24T08:38:39.291Z,7.63
2023-08-24T08:41:06.828Z,7.93
2023-08-24T08:43:34.270Z,5.60
2023-08-24T08:46:02.126Z,8.02
2023-08-24T08:48:30.164Z,7.35
2023-08-24T08:50:59.204Z,6.50
2023-08-24T08:53:28.096Z,5.63
2023-08-24T08:55:58.983Z,5.60
2023-08-24T08:58:28.376Z,5.78
2023-08-24T09:00:56.326Z,5.60
2023-08-24T09:03:25.022Z,5.13
2023-08-24T09:05:52.613Z,5.68
2023-08-24T09:08:21.250Z,5.33
2023-08-24T09:10:50.553Z,5.55
2023-08-24T09:13:18.596Z,5.95
2023-08-24T09:15:45.956Z,6.25
2023-08-24T09:18:13.395Z,5.82
2023-08-24T09:20:41.126Z,6.50
2023-08-24T09:23:20.251Z,5.70
2023-08-24T09:25:49.585Z,5.13
2023-08-24T09:28:25.578Z,4.63
2023-08-24T09:30:56.096Z,5.45
2023-08-24T09:33:26.145Z,6.67
2023-08-24T09:35:55.557Z,6.55
2023-08-24T09:38:24.578Z,4.82
2023-08-24T09:40:56.451Z,5.45
2023-08-24T09:43:24.448Z,6.63
2023-08-24T09:45:52.910Z,5.87
2023-08-24T09:48:21.215Z,6.32
2023-08-24T09:50:50.938Z,4.78
2023-08-24T09:53:20.075Z,5.35
2023-08-24T09:55:54.131Z,4.60
2023-08-24T09:58:23.777Z,5.63
2023-08-24T10:00:51.670Z,5.25
2023-08-24T10:03:21.927Z,5.47
2023-08-24T10:05:58.869Z,6.35
2023-08-24T10:08:38.255Z,5.85
2023-08-24T10:11:07.409Z,5.37
2023-08-24T10:13:43.458Z,6.47
2023-08-24T10:16:14.197Z,5.60
2023-08-24T10:18:41.816Z,5.45
2023-08-24T10:21:09.661Z,5.35
2023-08-24T10:23:38.596Z,5.10
2023-08-24T10:26:08.287Z,6.53
2023-08-24T10:28:37.869Z,5.78
2023-08-24T10:31:05.532Z,3.70
2023-08-24T10:33:35.432Z,4.88
2023-08-24T10:36:06.765Z,5.43
2023-08-24T10:38:37.248Z,5.63
2023-08-24T10:41:05.437Z,5.63
2023-08-24T10:43:38.200Z,5.57
2023-08-24T10:46:12.135Z,4.13
2023-08-24T10:49:01.068Z,5.10
2023-08-24T10:51:29.957Z,5.18
2023-08-24T10:53:58.612Z,4.40
2023-08-24T10:56:36.310Z,4.32
2023-08-24T10:59:18.262Z,5.13
2023-08-24T11:01:56.907Z,5.33
2023-08-24T11:04:24.354Z,4.72
2023-08-24T11:06:56.282Z,5.35
2023-08-24T11:09:24.638Z,5.10
2023-08-24T11:11:58.819Z,6.43
2023-08-24T11:14:29.795Z,5.13
2023-08-24T11:17:00.263Z,8.75
2023-08-24T11:19:27.937Z,5.03
2023-08-24T11:21:55.369Z,6.45
2023-08-24T11:24:25.423Z,6.10
2023-08-24T11:26:53.683Z,5.67
2023-08-24T11:29:21.334Z,5.43
2023-08-24T11:31:52.477Z,4.88
2023-08-24T11:34:19.850Z,5.30
2023-08-24T11:36:51.429Z,4.65
2023-08-24T11:39:21.290Z,6.07
2023-08-24T11:41:59.421Z,4.88
2023-08-24T11:44:29.604Z,6.38
2023-08-24T11:47:00.458Z,7.05
2023-08-24T11:49:28.267Z,5.57
2023-08-24T11:51:56.523Z,6.40
2023-08-24T11:54:23.922Z,7.45
2023-08-24T11:56:51.316Z,5.53
2023-08-24T11:59:18.956Z,5.45
2023-08-24T12:01:47.823Z,6.75
2023-08-24T12:04:16.581Z,5.17
2023-08-24T12:06:43.920Z,9.80
2023-08-24T12:09:11.414Z,5.70
2023-08-24T12:11:40.181Z,5.97
2023-08-24T12:14:11.014Z,7.40
2023-08-24T12:16:38.736Z,7.30
2023-08-24T12:19:08.680Z,5.53
2023-08-24T12:21:37.384Z,5.90
2023-08-24T12:24:10.378Z,5.43
2023-08-24T12:26:37.825Z,5.55
2023-08-24T12:29:09.123Z,6.27
2023-08-24T12:31:37.315Z,5.72
2023-08-24T12:34:06.315Z,5.47
2023-08-24T12:36:34.869Z,5.78
2023-08-24T12:39:08.722Z,6.20
2023-08-24T12:41:36.153Z,6.63
2023-08-24T12:44:06.696Z,5.10
2023-08-24T12:46:34.436Z,5.07
2023-08-24T12:49:01.872Z,5.95
2023-08-24T12:51:29.308Z,5.40
2023-08-24T12:53:56.674Z,5.03
2023-08-24T12:56:25.288Z,6.55
2023-08-24T12:58:52.652Z,4.72
2023-08-24T13:01:19.997Z,5.25
2023-08-24T13:03:47.339Z,6.30
2023-08-24T13:06:24.387Z,5.93
2023-08-24T13:08:53.829Z,4.70
2023-08-24T13:11:22.009Z,5.85
2023-08-24T13:13:50.787Z,4.30
2023-08-24T13:16:18.226Z,6.18
2023-08-24T13:18:45.670Z,6.50
2023-08-24T13:21:13.298Z,6.65
2023-08-24T13:23:40.982Z,4.72
2023-08-24T13:26:19.286Z,4.88
2023-08-24T13:28:47.019Z,5.40
2023-08-24T13:31:15.787Z,5.73
2023-08-24T13:33:43.191Z,7.72
2023-08-24T13:36:10.897Z,6.55
2023-08-24T13:38:39.369Z,7.57
2023-08-24T13:41:06.835Z,6.70
2023-08-24T13:43:34.123Z,5.07
2023-08-24T13:46:04.403Z,5.55
2023-08-24T13:48:35.583Z,6.28
2023-08-24T13:51:03.156Z,6.05
2023-08-24T13:53:30.859Z,4.93
2023-08-24T13:55:58.221Z,5.33
2023-08-24T13:58:25.551Z,5.53
2023-08-24T14:00:56.838Z,6.35
2023-08-24T14:03:24.356Z,5.75
2023-08-24T14:05:57.703Z,5.93
2023-08-24T14:08:25.374Z,5.60
2023-08-24T14:10:53.089Z,7.88
2023-08-24T14:13:21.330Z,7.40
2023-08-24T14:15:49.474Z,4.75
2023-08-24T14:18:17.919Z,5.63
2023-08-24T14:20:45.304Z,6.67
2023-08-24T14:23:13.933Z,5.88
2023-08-24T14:25:41.253Z,5.55
2023-08-24T14:28:10.474Z,6.32
2023-08-24T14:30:39.855Z,6.68
2023-08-24T14:33:07.235Z,6.13
2023-08-24T14:35:34.605Z,6.10
2023-08-24T14:38:02.178Z,6.88
2023-08-24T14:40:31.083Z,4.88
2023-08-24T14:42:58.676Z,5.25
2023-08-24T14:45:25.971Z,6.93
2023-08-24T14:47:53.646Z,4.60
2023-08-24T14:50:21.237Z,5.15
2023-08-24T14:52:48.779Z,4.97
2023-08-24T14:55:16.221Z,5.18
2023-08-24T14:57:45.025Z,7.63
2023-08-24T15:00:13.644Z,6.22
2023-08-24T15:02:43.048Z,4.78
2023-08-24T15:05:10.542Z,4.80
2023-08-24T15:07:37.862Z,5.25
2023-08-24T15:10:06.497Z,4.90
2023-08-24T15:12:33.850Z,5.28
2023-08-24T15:15:04.366Z,4.15
2023-08-24T15:17:32.999Z,5.15
2023-08-24T15:20:00.513Z,6.00
2023-08-24T15:22:30.969Z,4.53
2023-08-24T15:24:58.556Z,6.68
2023-08-24T15:27:26.099Z,5.35
2023-08-24T15:29:53.504Z,5.95
2023-08-24T15:32:22.479Z,5.70
2023-08-24T15:34:49.974Z,5.93
2023-08-24T15:37:17.303Z,5.25
2023-08-24T15:39:44.654Z,5.72
2023-08-24T15:42:12.009Z,7.40
2023-08-24T15:44:39.303Z,5.20
2023-08-24T15:47:06.768Z,6.07
2023-08-24T15:49:35.440Z,5.53
2023-08-24T15:52:02.785Z,7.07
2023-08-24T15:54:30.107Z,6.72
2023-08-24T15:56:57.649Z,5.57
2023-08-24T15:59:24.975Z,6.37
2023-08-24T16:01:52.847Z,5.82
2023-08-24T16:04:20.221Z,4.65
2023-08-24T16:06:48.916Z,7.15
2023-08-24T16:09:16.280Z,6.28
2023-08-24T16:11:43.706Z,4.60
2023-08-24T16:14:12.653Z,6.50
2023-08-24T16:16:40.313Z,5.22
2023-08-24T16:19:08.165Z,4.75
2023-08-24T16:21:35.891Z,5.65
2023-08-24T16:24:04.734Z,4.83
2023-08-24T16:26:32.103Z,5.78
2023-08-24T16:28:59.394Z,6.45
2023-08-24T16:31:26.753Z,4.50
2023-08-24T16:33:54.134Z,5.25
2023-08-24T16:36:21.529Z,4.93
2023-08-24T16:38:48.980Z,5.03
2023-08-24T16:41:17.608Z,4.85
2023-08-24T16:43:45.006Z,5.68
2023-08-24T16:46:12.373Z,5.82
2023-08-24T16:48:39.726Z,5.60
2023-08-24T16:51:07.036Z,5.55
2023-08-24T16:53:34.341Z,5.90
2023-08-24T16:56:01.636Z,5.32
2023-08-24T16:58:31.140Z,5.97
2023-08-24T17:01:05.343Z,6.10
2023-08-24T17:03:32.809Z,5.15
2023-08-24T17:06:00.164Z,6.57
2023-08-24T17:08:27.547Z,5.78
2023-08-24T17:10:54.895Z,5.25
2023-08-24T17:13:22.735Z,6.77
2023-08-24T17:15:51.802Z,5.85
2023-08-24T17:18:19.508Z,5.63
2023-08-24T17:20:47.581Z,6.53
2023-08-24T17:23:15.133Z,5.97
2023-08-24T17:25:47.592Z,6.70
2023-08-24T17:28:14.989Z,6.93
2023-08-24T17:30:47.937Z,6.43
2023-08-24T17:33:16.794Z,5.65
2023-08-24T17:35:44.203Z,6.45
2023-08-24T17:38:11.502Z,5.37
2023-08-24T17:40:38.829Z,5.53
2023-08-24T17:43:06.343Z,5.97
2023-08-24T17:45:33.724Z,7.50
2023-08-24T17:48:01.105Z,6.95
2023-08-24T17:50:29.865Z,5.40
2023-08-24T17:52:57.178Z,6.63
2023-08-24T17:55:24.546Z,6.53
2023-08-24T17:57:52.208Z,6.38
2023-08-24T18:00:20.091Z,5.97
2023-08-24T18:02:47.877Z,6.13
2023-08-24T18:05:15.384Z,8.50
2023-08-24T18:07:44.074Z,9.63
2023-08-24T18:10:11.387Z,7.63
2023-08-24T18:12:38.708Z,7.93
2023-08-24T18:15:07.184Z,9.77
2023-08-24T18:17:35.004Z,6.53
2023-08-24T18:20:02.571Z,7.05
2023-08-24T18:22:29.900Z,10.02
2023-08-24T18:24:58.690Z,8.20
2023-08-24T18:27:26.001Z,7.47
2023-08-24T18:29:55.074Z,8.95
2023-08-24T18:32:23.291Z,9.18
2023-08-24T18:34:50.640Z,8.00
2023-08-24T18:37:18.063Z,7.18
2023-08-24T18:39:46.060Z,9.80
2023-08-24T18:42:14.780Z,6.55
2023-08-24T18:44:42.284Z,8.13
2023-08-24T18:47:09.582Z,8.65
2023-08-24T18:49:36.930Z,8.68
2023-08-24T18:52:04.874Z,9.63
2023-08-24T18:54:32.208Z,8.13
2023-08-24T18:57:00.861Z,7.38
2023-08-24T18:59:29.729Z,7.63
2023-08-24T19:01:57.039Z,7.03
2023-08-24T19:04:24.377Z,8.30
2023-08-24T19:06:53.366Z,6.53
2023-08-24T19:09:20.680Z,6.00
2023-08-24T19:11:48.030Z,7.10
2023-08-24T19:14:15.345Z,7.93
2023-08-24T19:16:45.308Z,9.20
2023-08-24T19:19:12.625Z,7.80
2023-08-24T19:21:39.955Z,8.50
2023-08-24T19:24:07.348Z,6.50
2023-08-24T19:26:34.726Z,8.43
2023-08-24T19:29:02.526Z,8.90
2023-08-24T19:31:30.012Z,8.18
2023-08-24T19:33:58.684Z,7.72
2023-08-24T19:36:26.040Z,8.80
2023-08-24T19:38:53.352Z,9.27
2023-08-24T19:41:21.066Z,7.40
2023-08-24T19:43:48.424Z,9.90
2023-08-24T19:46:15.830Z,7.95
2023-08-24T19:48:43.426Z,6.95
2023-08-24T19:51:12.133Z,7.32
2023-08-24T19:53:39.442Z,9.27
2023-08-24T19:56:06.811Z,9.73
2023-08-24T19:58:34.175Z,8.45
2023-08-24T20:01:01.532Z,8.32
2023-08-24T20:03:29.114Z,7.28
2023-08-24T20:05:56.655Z,7.80
2023-08-24T20:08:28.096Z,7.43
2023-08-24T20:10:55.607Z,9.80
2023-08-24T20:13:23.082Z,7.72
2023-08-24T20:15:50.535Z,9.90
2023-08-24T20:18:18.107Z,7.63
2023-08-24T20:20:46.137Z,8.48
2023-08-24T20:23:13.551Z,7.60
2023-08-24T20:25:42.958Z,8.75
2023-08-24T20:28:10.277Z,7.65
2023-08-24T20:30:37.668Z,8.70
2023-08-24T20:33:05.432Z,10.02
2023-08-24T20:35:32.784Z,8.98
2023-08-24T20:38:00.078Z,9.73
2023-08-24T20:40:27.435Z,9.30
2023-08-24T20:42:56.088Z,7.37
2023-08-24T20:45:23.445Z,8.45
2023-08-24T20:47:51.356Z,8.57
2023-08-24T20:50:18.997Z,9.13
2023-08-24T20:52:46.432Z,8.43
2023-08-24T20:55:17.322Z,9.10
2023-08-24T20:57:44.707Z,7.18
2023-08-24T21:00:13.965Z,9.57
2023-08-24T21:02:42.289Z,11.63
2023-08-24T21:05:10.461Z,8.90
2023-08-24T21:07:39.058Z,8.30
2023-08-24T21:10:07.280Z,9.18
2023-08-24T21:12:34.590Z,7.82
2023-08-24T21:15:02.023Z,7.10
2023-08-24T21:17:30.935Z,11.02
2023-08-24T21:19:58.877Z,6.20
2023-08-24T21:22:26.229Z,7.07
2023-08-24T21:24:53.613Z,8.48
2023-08-24T21:27:20.943Z,7.47
2023-08-24T21:29:50.731Z,10.48
2023-08-24T21:32:18.064Z,10.40
2023-08-24T21:34:46.701Z,8.57
2023-08-24T21:37:14.322Z,10.27
2023-08-24T21:39:41.609Z,8.88
2023-08-24T21:42:09.048Z,7.93
2023-08-24T21:44:36.460Z,8.80
2023-08-24T21:47:03.823Z,11.05
2023-08-24T21:49:31.269Z,9.23
2023-08-24T21:52:00.173Z,7.22
2023-08-24T21:54:27.504Z,8.25
2023-08-24T21:56:54.867Z,8.67
2023-08-24T21:59:22.244Z,7.40
2023-08-24T22:01:49.613Z,7.25
2023-08-24T22:04:17.732Z,7.97
2023-08-24T22:06:45.077Z,7.68
2023-08-24T22:09:13.716Z,8.30
2023-08-24T22:11:41.136Z,8.25
2023-08-24T22:14:08.464Z,8.90
2023-08-24T22:16:35.893Z,9.10
2023-08-24T22:19:07.868Z,7.30
2023-08-24T22:21:41.170Z,6.93
2023-08-24T22:24:08.572Z,7.10
2023-08-24T22:26:37.214Z,9.05
2023-08-24T22:29:05.476Z,8.00
2023-08-24T22:31:32.810Z,7.05
2023-08-24T22:34:00.127Z,8.77
2023-08-24T22:36:27.407Z,6.43
2023-08-24T22:38:54.703Z,7.93
2023-08-24T22:41:22.012Z,8.55
2023-08-24T22:43:51.120Z,7.78
2023-08-24T22:46:18.498Z,7.67
2023-08-24T22:48:45.816Z,7.78
2023-08-24T22:51:13.128Z,7.53
2023-08-24T22:53:40.716Z,7.13
2023-08-24T22:56:08.011Z,7.15
2023-08-24T22:58:35.492Z,7.20
2023-08-24T23:01:14.703Z,9.93
2023-08-24T23:03:42.164Z,8.75
2023-08-24T23:06:14.804Z,6.63
2023-08-24T23:08:42.444Z,7.13
2023-08-24T23:11:10.015Z,6.17
2023-08-24T23:13:37.338Z,7.00
2023-08-24T23:16:06.386Z,7.25
2023-08-24T23:18:33.786Z,8.02
2023-08-24T23:21:01.647Z,8.10
2023-08-24T23:23:28.993Z,7.60
2023-08-24T23:25:56.366Z,6.40
2023-08-24T23:28:23.992Z,7.75
2023-08-24T23:30:51.296Z,8.48
2023-08-24T23:33:19.932Z,8.43
2023-08-24T23:35:47.223Z,7.77
2023-08-24T23:38:14.547Z,7.65
2023-08-24T23:40:41.941Z,7.80
2023-08-24T23:43:09.958Z,8.77
2023-08-24T23:45:37.350Z,8.30
2023-08-24T23:48:05.286Z,7.40
2023-08-24T23:50:33.963Z,8.23
2023-08-24T23:53:01.554Z,7.72
2023-08-24T23:55:29.415Z,8.18
2023-08-24T23:57:57.904Z,7.32
